Fertile, Iowa
Current Conditions -  °F | °C
As of 9:53 PM on Thursday 20 Nov 2014 (Local Time) from KMCW Reporting Station
Clear Clear  
Wind Chill:   Ceiling: Unl
Heat Index:   Visibility: 10mi
Dew Point: -1°   Wind: 0mph
Humidity: 84%   Direction: NA
Pressure: 30.26"   Gusts: NA
Location:  43.26°N, 93.42°W
Report Text: KMCW 210353Z AUTO 00000KT 10SM CLR M16/M18 A3026 RMK AO2 SLP271 I1000 T11611183
Loading
Personal Weather Stations






























Interactive Weather Map New forecast layout! Learn more

10-Day Weather Forecast

Advertisements
Track Severe Weather on mobile